createdAt,value
2019-04-28T00:00:16.665Z,0
2019-04-28T00:01:16.664Z,0
2019-04-28T00:02:16.590Z,0
2019-04-28T00:03:20.626Z,0
2019-04-28T00:04:16.773Z,0
2019-04-28T00:05:16.690Z,0
2019-04-28T00:06:16.596Z,0
2019-04-28T00:07:17.152Z,0
2019-04-28T00:08:18.676Z,0
2019-04-28T00:09:17.051Z,0
2019-04-28T00:10:16.545Z,0
2019-04-28T00:11:16.975Z,0
2019-04-28T00:12:16.777Z,0
2019-04-28T00:13:16.704Z,0
2019-04-28T00:14:21.632Z,0
2019-04-28T00:15:20.681Z,0
2019-04-28T00:16:16.906Z,0
2019-04-28T00:17:16.623Z,0
2019-04-28T00:18:17.141Z,0
2019-04-28T00:19:16.576Z,0
2019-04-28T00:20:18.016Z,0
2019-04-28T00:21:16.913Z,0
2019-04-28T00:22:16.593Z,0
2019-04-28T00:23:19.425Z,0
2019-04-28T00:24:16.735Z,0
2019-04-28T00:25:16.697Z,0
2019-04-28T00:26:17.135Z,0
2019-04-28T00:27:17.239Z,0
2019-04-28T00:28:16.778Z,0
2019-04-28T00:29:16.661Z,0
2019-04-28T00:30:17.340Z,0
2019-04-28T00:31:16.612Z,0
2019-04-28T00:32:16.542Z,0
2019-04-28T00:33:17.279Z,0
2019-04-28T00:34:21.021Z,0
2019-04-28T00:35:17.087Z,0
2019-04-28T00:36:16.855Z,0
2019-04-28T00:37:23.778Z,0
2019-04-28T00:38:18.213Z,0
2019-04-28T00:39:16.941Z,0
2019-04-28T00:40:18.824Z,0
2019-04-28T00:41:16.715Z,0
2019-04-28T00:42:17.071Z,0
2019-04-28T00:43:18.581Z,0
2019-04-28T00:44:17.371Z,0
2019-04-28T00:45:17.171Z,0
2019-04-28T00:46:21.058Z,0
2019-04-28T00:47:16.716Z,0
2019-04-28T00:48:16.715Z,0
2019-04-28T00:49:17.177Z,0
2019-04-28T00:50:17.059Z,0
2019-04-28T00:51:18.251Z,0
2019-04-28T00:52:19.004Z,0
2019-04-28T00:53:18.472Z,0
2019-04-28T00:54:17.247Z,0
2019-04-28T00:55:16.742Z,0
2019-04-28T00:56:17.361Z,0
2019-04-28T00:57:17.022Z,0
2019-04-28T00:58:20.767Z,0
2019-04-28T00:59:17.160Z,0
2019-04-28T01:00:16.853Z,0
2019-04-28T01:01:16.703Z,0
2019-04-28T01:02:17.548Z,0
2019-04-28T01:03:17.291Z,0
2019-04-28T01:04:17.107Z,0
2019-04-28T01:05:16.787Z,0
2019-04-28T01:06:17.123Z,0
2019-04-28T01:07:16.806Z,0
2019-04-28T01:08:18.720Z,0
2019-04-28T01:09:17.681Z,0
2019-04-28T01:10:16.869Z,0
2019-04-28T01:11:17.037Z,0
2019-04-28T01:12:16.738Z,0
2019-04-28T01:13:16.926Z,0
2019-04-28T01:14:16.834Z,0
2019-04-28T01:15:20.137Z,0
2019-04-28T01:16:19.252Z,0
2019-04-28T01:17:17.617Z,0
2019-04-28T01:18:20.115Z,0
2019-04-28T01:19:17.954Z,0
2019-04-28T01:20:19.478Z,0
2019-04-28T01:21:20.299Z,0
2019-04-28T01:22:19.982Z,0
2019-04-28T01:23:18.204Z,0
2019-04-28T01:24:17.318Z,0
2019-04-28T01:25:20.078Z,0
2019-04-28T01:26:17.767Z,0
2019-04-28T01:27:20.204Z,0
2019-04-28T01:28:19.450Z,0
2019-04-28T01:29:17.470Z,0
2019-04-28T01:30:22.908Z,0
2019-04-28T01:31:17.467Z,0
2019-04-28T01:32:19.849Z,0
2019-04-28T01:33:17.863Z,0
2019-04-28T01:34:19.835Z,0
2019-04-28T01:35:20.710Z,0
2019-04-28T01:36:20.137Z,0
2019-04-28T01:37:19.166Z,0
2019-04-28T01:38:20.403Z,0
2019-04-28T01:39:19.871Z,0
2019-04-28T01:40:17.440Z,0
2019-04-28T01:41:19.638Z,0
2019-04-28T01:42:20.327Z,0
2019-04-28T01:43:19.151Z,0
2019-04-28T01:44:19.788Z,0
2019-04-28T01:45:20.508Z,0
2019-04-28T01:46:25.145Z,0
2019-04-28T01:47:20.286Z,0
2019-04-28T01:48:19.700Z,0
2019-04-28T01:49:19.354Z,0
2019-04-28T01:50:20.182Z,0
2019-04-28T01:51:19.043Z,0
2019-04-28T01:52:20.109Z,0
2019-04-28T01:53:17.571Z,0
2019-04-28T01:54:18.051Z,0
2019-04-28T01:55:19.504Z,0
2019-04-28T01:56:20.261Z,0
2019-04-28T01:57:21.155Z,0
2019-04-28T01:58:19.920Z,0
2019-04-28T01:59:18.044Z,0
2019-04-28T02:00:34.928Z,0
2019-04-28T02:01:20.250Z,0
2019-04-28T02:02:19.691Z,0
2019-04-28T02:03:20.095Z,0
2019-04-28T02:04:19.633Z,0
2019-04-28T02:05:19.197Z,0
2019-04-28T02:06:19.453Z,0
2019-04-28T02:07:20.360Z,0
2019-04-28T02:08:17.996Z,0
2019-04-28T02:09:19.498Z,0
2019-04-28T02:10:20.167Z,0
2019-04-28T02:11:19.375Z,0
2019-04-28T02:12:20.345Z,0
2019-04-28T02:13:19.827Z,0
2019-04-28T02:14:17.464Z,0
2019-04-28T02:15:20.153Z,0
2019-04-28T02:16:24.785Z,0
2019-04-28T02:17:20.116Z,0
2019-04-28T02:18:19.684Z,0
2019-04-28T02:19:20.337Z,0
2019-04-28T02:20:20.071Z,0
2019-04-28T02:21:19.434Z,0
2019-04-28T02:22:19.728Z,0
2019-04-28T02:23:17.741Z,0
2019-04-28T02:24:18.953Z,0
2019-04-28T02:25:19.515Z,0
2019-04-28T02:26:17.506Z,0
2019-04-28T02:27:20.327Z,0
2019-04-28T02:28:19.773Z,0
2019-04-28T02:29:17.989Z,0
2019-04-28T02:30:20.905Z,0
2019-04-28T02:31:21.493Z,0
2019-04-28T02:32:21.147Z,0
2019-04-28T02:33:21.095Z,0
2019-04-28T02:34:21.121Z,0
2019-04-28T02:35:21.051Z,0
2019-04-28T02:36:23.424Z,0
2019-04-28T02:37:20.522Z,0
2019-04-28T02:38:20.964Z,0
2019-04-28T02:39:20.644Z,0
2019-04-28T02:40:20.639Z,0
2019-04-28T02:41:20.787Z,0
2019-04-28T02:42:20.770Z,0
2019-04-28T02:43:20.825Z,0
2019-04-28T02:44:20.654Z,0
2019-04-28T02:45:21.711Z,0
2019-04-28T02:46:27.772Z,0
2019-04-28T02:47:21.446Z,0
2019-04-28T02:48:21.070Z,0
2019-04-28T02:49:20.141Z,0
2019-04-28T02:50:21.036Z,0
2019-04-28T02:51:20.818Z,0
2019-04-28T02:52:20.557Z,0
2019-04-28T02:53:21.037Z,0
2019-04-28T02:54:20.174Z,0
2019-04-28T02:55:21.284Z,0
2019-04-28T02:56:21.261Z,0
2019-04-28T02:57:20.793Z,0
2019-04-28T02:58:24.966Z,0
2019-04-28T02:59:20.978Z,0
2019-04-28T03:00:18.240Z,0
2019-04-28T03:01:36.127Z,0
2019-04-28T03:02:20.738Z,0
2019-04-28T03:03:21.066Z,0
2019-04-28T03:04:22.790Z,0
2019-04-28T03:05:21.460Z,0
2019-04-28T03:06:20.644Z,0
2019-04-28T03:07:24.479Z,0
2019-04-28T03:08:21.300Z,0
2019-04-28T03:09:20.224Z,0
2019-04-28T03:10:21.305Z,0
2019-04-28T03:11:20.295Z,0
2019-04-28T03:12:21.490Z,0
2019-04-28T03:13:23.629Z,0
2019-04-28T03:14:20.848Z,0
2019-04-28T03:15:20.356Z,0
2019-04-28T03:16:30.360Z,0
2019-04-28T03:17:20.730Z,0
2019-04-28T03:18:21.376Z,0
2019-04-28T03:19:21.118Z,0
2019-04-28T03:20:20.915Z,0
2019-04-28T03:21:21.328Z,0
2019-04-28T03:22:20.367Z,0
2019-04-28T03:23:23.362Z,0
2019-04-28T03:24:23.845Z,0
2019-04-28T03:25:20.388Z,0
2019-04-28T03:26:21.181Z,0
2019-04-28T03:27:20.456Z,0
2019-04-28T03:28:21.345Z,0
2019-04-28T03:29:20.492Z,0
2019-04-28T03:30:25.662Z,0
2019-04-28T03:33:00.974Z,0
2019-04-28T03:33:43.251Z,0
2019-04-28T03:34:25.917Z,0
2019-04-28T03:35:25.432Z,0
2019-04-28T03:36:32.295Z,0
2019-04-28T03:37:21.535Z,0
2019-04-28T03:38:21.337Z,0
2019-04-28T03:39:20.433Z,0
2019-04-28T03:40:21.140Z,0
2019-04-28T03:41:21.107Z,0
2019-04-28T03:42:21.509Z,0
2019-04-28T03:43:23.927Z,0
2019-04-28T03:44:20.768Z,0
2019-04-28T03:45:21.076Z,0
2019-04-28T03:46:30.384Z,0
2019-04-28T03:47:21.005Z,0
2019-04-28T03:48:21.039Z,0
2019-04-28T03:49:21.051Z,0
2019-04-28T03:50:20.175Z,0
2019-04-28T03:51:23.797Z,0
2019-04-28T03:52:21.041Z,0
2019-04-28T03:53:20.685Z,0
2019-04-28T03:54:20.189Z,0
2019-04-28T03:55:21.248Z,0
2019-04-28T03:56:20.870Z,0
2019-04-28T03:57:21.458Z,0
2019-04-28T03:58:21.825Z,0
2019-04-28T03:59:18.220Z,0
2019-04-28T04:00:21.664Z,0
2019-04-28T04:01:20.648Z,0
2019-04-28T04:02:21.067Z,0
2019-04-28T04:03:20.916Z,0
2019-04-28T04:04:21.271Z,0
2019-04-28T04:05:20.800Z,0
2019-04-28T04:06:18.423Z,0
2019-04-28T04:07:21.462Z,0
2019-04-28T04:08:20.818Z,0
2019-04-28T04:09:21.092Z,0
2019-04-28T04:10:20.626Z,0
2019-04-28T04:11:20.157Z,0
2019-04-28T04:12:21.149Z,0
2019-04-28T04:13:20.062Z,0
2019-04-28T04:14:21.074Z,0
2019-04-28T04:15:21.303Z,0
2019-04-28T04:16:30.734Z,0
2019-04-28T04:17:21.134Z,0
2019-04-28T04:18:20.995Z,0
2019-04-28T04:19:20.306Z,0
2019-04-28T04:20:20.659Z,0
2019-04-28T04:21:21.335Z,0
2019-04-28T04:22:18.015Z,0
2019-04-28T04:23:22.555Z,0
2019-04-28T04:24:20.500Z,0
2019-04-28T04:25:22.963Z,0
2019-04-28T04:26:21.204Z,0
2019-04-28T04:27:20.890Z,0
2019-04-28T04:28:20.508Z,0
2019-04-28T04:29:18.059Z,0
2019-04-28T04:30:20.756Z,0
2019-04-28T04:31:19.958Z,0
2019-04-28T04:32:41.042Z,0
2019-04-28T04:33:20.678Z,0
2019-04-28T04:34:20.178Z,0
2019-04-28T04:35:18.328Z,0
2019-04-28T04:36:21.051Z,0
2019-04-28T04:37:23.059Z,0
2019-04-28T04:38:21.397Z,0
2019-04-28T04:39:20.601Z,0
2019-04-28T04:40:23.590Z,0
2019-04-28T04:41:20.195Z,0
2019-04-28T04:42:20.373Z,0
2019-04-28T04:43:21.005Z,0
2019-04-28T04:44:21.023Z,0
2019-04-28T04:45:20.239Z,0
2019-04-28T04:46:21.839Z,0
2019-04-28T04:47:20.972Z,0
2019-04-28T04:48:21.459Z,0
2019-04-28T04:49:21.341Z,0
2019-04-28T04:50:23.521Z,0
2019-04-28T04:51:20.799Z,0
2019-04-28T04:52:20.272Z,0
2019-04-28T04:53:20.755Z,0
2019-04-28T04:54:20.403Z,0
2019-04-28T04:55:21.166Z,0
2019-04-28T04:56:20.951Z,0
2019-04-28T04:57:20.700Z,0
2019-04-28T04:58:21.142Z,0
2019-04-28T04:59:19.577Z,0
2019-04-28T05:00:17.898Z,0
2019-04-28T05:01:20.342Z,0
2019-04-28T05:02:35.823Z,0
2019-04-28T05:03:21.087Z,0
2019-04-28T05:04:17.411Z,0
2019-04-28T05:05:20.258Z,0
2019-04-28T05:06:17.907Z,0
2019-04-28T05:07:19.638Z,0
2019-04-28T05:08:23.039Z,0
2019-04-28T05:09:19.605Z,0
2019-04-28T05:10:19.980Z,0
2019-04-28T05:11:19.893Z,0
2019-04-28T05:12:17.479Z,0
2019-04-28T05:13:19.896Z,0
2019-04-28T05:14:22.408Z,0
2019-04-28T05:15:18.260Z,0
2019-04-28T05:16:17.644Z,0
2019-04-28T05:17:20.102Z,0
2019-04-28T05:18:19.803Z,0
2019-04-28T05:19:19.445Z,0
2019-04-28T05:20:19.978Z,0
2019-04-28T05:21:19.180Z,0
2019-04-28T05:22:17.962Z,0
2019-04-28T05:23:17.430Z,0
2019-04-28T05:24:25.468Z,0
2019-04-28T05:25:20.368Z,0
2019-04-28T05:26:21.075Z,0
2019-04-28T05:27:22.065Z,0
2019-04-28T05:28:19.733Z,0
2019-04-28T05:29:19.826Z,0
2019-04-28T05:30:20.407Z,0
2019-04-28T05:31:29.741Z,0
2019-04-28T05:32:20.349Z,0
2019-04-28T05:33:19.360Z,0
2019-04-28T05:34:20.458Z,0
2019-04-28T05:35:21.890Z,0
2019-04-28T05:36:17.967Z,0
2019-04-28T05:37:19.327Z,0
2019-04-28T05:38:17.762Z,0
2019-04-28T05:39:19.564Z,0
2019-04-28T05:40:20.388Z,0
2019-04-28T05:41:19.600Z,0
2019-04-28T05:42:19.891Z,0
2019-04-28T05:43:19.534Z,0
2019-04-28T05:44:19.818Z,0
2019-04-28T05:45:18.190Z,0
2019-04-28T05:46:19.680Z,0
2019-04-28T05:47:17.783Z,0
2019-04-28T05:48:20.074Z,0
2019-04-28T05:49:19.438Z,0
2019-04-28T05:50:19.646Z,0
2019-04-28T05:51:17.225Z,0
2019-04-28T05:52:20.048Z,0
2019-04-28T05:53:19.256Z,0
2019-04-28T05:54:17.670Z,0
2019-04-28T05:55:18.307Z,0
2019-04-28T05:56:18.089Z,0
2019-04-28T05:57:20.527Z,0
2019-04-28T05:58:19.360Z,0
2019-04-28T05:59:19.300Z,0
2019-04-28T06:00:19.731Z,0
2019-04-28T06:01:20.191Z,0
2019-04-28T06:02:21.745Z,0
2019-04-28T06:03:17.640Z,0
2019-04-28T06:04:19.893Z,0
2019-04-28T06:05:19.859Z,0
2019-04-28T06:06:18.092Z,0
2019-04-28T06:07:17.939Z,0
2019-04-28T06:08:17.902Z,0
2019-04-28T06:09:18.073Z,0
2019-04-28T06:10:20.251Z,5
2019-04-28T06:11:17.511Z,5
2019-04-28T06:12:19.954Z,5
2019-04-28T06:13:19.990Z,5
2019-04-28T06:14:19.762Z,5
2019-04-28T06:15:20.416Z,5
2019-04-28T06:16:17.380Z,5
2019-04-28T06:17:20.546Z,5
2019-04-28T06:18:18.312Z,5
2019-04-28T06:19:20.132Z,5
2019-04-28T06:20:20.092Z,5
2019-04-28T06:21:17.145Z,5
2019-04-28T06:22:20.387Z,5
2019-04-28T06:23:17.156Z,5
2019-04-28T06:24:17.193Z,5
2019-04-28T06:25:17.558Z,5
2019-04-28T06:26:17.350Z,5
2019-04-28T06:27:17.267Z,5
2019-04-28T06:28:17.137Z,5
2019-04-28T06:29:17.200Z,5
2019-04-28T06:30:17.579Z,5
2019-04-28T06:31:17.967Z,5
2019-04-28T06:32:17.513Z,5
2019-04-28T06:33:18.827Z,5
2019-04-28T06:34:17.296Z,5
2019-04-28T06:35:17.282Z,5
2019-04-28T06:36:17.571Z,5
2019-04-28T06:37:17.560Z,5
2019-04-28T06:38:17.235Z,5
2019-04-28T06:39:17.226Z,5
2019-04-28T06:40:17.402Z,5
2019-04-28T06:41:17.258Z,5
2019-04-28T06:42:17.492Z,5
2019-04-28T06:43:17.615Z,5
2019-04-28T06:44:17.463Z,5
2019-04-28T06:45:17.282Z,5
2019-04-28T06:46:17.330Z,5
2019-04-28T06:47:22.100Z,5
2019-04-28T06:48:17.825Z,10
2019-04-28T06:49:18.573Z,10
2019-04-28T06:50:17.925Z,10
2019-04-28T06:51:18.320Z,10
2019-04-28T06:52:17.851Z,10
2019-04-28T06:53:18.312Z,10
2019-04-28T06:54:17.174Z,10
2019-04-28T06:55:18.766Z,10
2019-04-28T06:56:18.554Z,10
2019-04-28T06:57:18.249Z,10
2019-04-28T06:58:17.141Z,15
2019-04-28T06:59:17.144Z,15
2019-04-28T07:00:18.498Z,15
2019-04-28T07:01:18.978Z,15
2019-04-28T07:02:17.897Z,15
2019-04-28T07:03:31.156Z,20
2019-04-28T07:04:17.830Z,20
2019-04-28T07:05:17.206Z,20
2019-04-28T07:06:17.273Z,20
2019-04-28T07:07:19.467Z,20
2019-04-28T07:08:20.033Z,25
2019-04-28T07:09:18.121Z,25
2019-04-28T07:10:18.385Z,25
2019-04-28T07:11:19.574Z,30
2019-04-28T07:12:19.766Z,30
2019-04-28T07:13:19.245Z,45
2019-04-28T07:14:17.216Z,50
2019-04-28T07:15:18.228Z,55
2019-04-28T07:16:18.699Z,60
2019-04-28T07:17:17.579Z,65
2019-04-28T07:18:17.588Z,75
2019-04-28T07:19:17.691Z,80
2019-04-28T07:20:17.460Z,85
2019-04-28T07:21:17.664Z,85
2019-04-28T07:22:17.286Z,90
2019-04-28T07:23:17.487Z,95
2019-04-28T07:24:17.484Z,100
2019-04-28T07:25:17.979Z,110
2019-04-28T07:26:17.517Z,110
2019-04-28T07:27:17.405Z,110
2019-04-28T07:28:17.340Z,75
2019-04-28T07:29:17.433Z,115
2019-04-28T07:30:17.397Z,95
2019-04-28T07:31:17.693Z,130
2019-04-28T07:32:17.369Z,140
2019-04-28T07:33:17.401Z,140
2019-04-28T07:34:17.382Z,50
2019-04-28T07:35:17.247Z,145
2019-04-28T07:36:17.353Z,155
2019-04-28T07:37:17.919Z,35
2019-04-28T07:38:17.366Z,40
2019-04-28T07:39:17.377Z,125
2019-04-28T07:40:17.346Z,65
2019-04-28T07:41:17.374Z,175
2019-04-28T07:42:17.357Z,40
2019-04-28T07:43:17.691Z,35
2019-04-28T07:44:17.391Z,40
2019-04-28T07:45:18.135Z,50
2019-04-28T07:46:17.307Z,20
2019-04-28T07:47:20.177Z,20
2019-04-28T07:48:28.104Z,30
2019-04-28T07:49:17.976Z,20
2019-04-28T07:50:17.839Z,20
2019-04-28T07:51:18.725Z,20
2019-04-28T07:52:18.670Z,20
2019-04-28T07:53:19.995Z,20
2019-04-28T07:54:18.686Z,20
2019-04-28T07:55:17.568Z,20
2019-04-28T07:56:19.424Z,20
2019-04-28T07:57:17.477Z,20
2019-04-28T07:58:18.633Z,20
2019-04-28T07:59:17.355Z,20
2019-04-28T08:00:18.475Z,20
2019-04-28T08:01:18.959Z,20
2019-04-28T08:02:18.456Z,25
2019-04-28T08:03:18.131Z,25
2019-04-28T08:04:17.254Z,30
2019-04-28T08:05:17.434Z,35
2019-04-28T08:06:19.133Z,35
2019-04-28T08:07:18.713Z,35
2019-04-28T08:08:17.423Z,40
2019-04-28T08:09:18.783Z,45
2019-04-28T08:10:17.803Z,60
2019-04-28T08:11:19.023Z,60
2019-04-28T08:12:19.313Z,45
2019-04-28T08:13:17.466Z,80
2019-04-28T08:14:19.748Z,100
2019-04-28T08:15:17.966Z,135
2019-04-28T08:16:18.432Z,85
2019-04-28T08:17:19.077Z,55
2019-04-28T08:18:19.079Z,120
2019-04-28T08:19:17.467Z,115
2019-04-28T08:20:18.663Z,120
2019-04-28T08:21:18.669Z,115
2019-04-28T08:22:17.344Z,85
2019-04-28T08:23:17.473Z,50
2019-04-28T08:24:18.468Z,65
2019-04-28T08:25:18.110Z,125
2019-04-28T08:26:17.597Z,60
2019-04-28T08:27:17.447Z,45
2019-04-28T08:28:17.325Z,120
2019-04-28T08:29:17.479Z,40
2019-04-28T08:30:17.417Z,40
2019-04-28T08:31:18.080Z,40
2019-04-28T08:32:17.432Z,40
2019-04-28T08:33:17.459Z,50
2019-04-28T08:34:20.906Z,105
2019-04-28T08:35:17.451Z,50
2019-04-28T08:36:17.910Z,45
2019-04-28T08:37:26.909Z,40
2019-04-28T08:38:19.352Z,105
2019-04-28T08:39:18.072Z,105
2019-04-28T08:40:17.358Z,100
2019-04-28T08:41:17.959Z,55
2019-04-28T08:42:17.896Z,85
2019-04-28T08:43:18.362Z,100
2019-04-28T08:44:17.454Z,95
2019-04-28T08:45:18.075Z,95
2019-04-28T08:46:18.464Z,90
2019-04-28T08:47:17.550Z,85
2019-04-28T08:48:17.754Z,85
2019-04-28T08:49:18.792Z,85
2019-04-28T08:50:19.345Z,85
2019-04-28T08:51:17.677Z,85
2019-04-28T08:52:17.904Z,85
2019-04-28T08:53:19.570Z,85
2019-04-28T08:54:17.819Z,85
2019-04-28T08:55:17.412Z,85
2019-04-28T08:56:18.132Z,85
2019-04-28T08:57:17.424Z,90
2019-04-28T08:58:17.356Z,90
2019-04-28T08:59:19.268Z,90
2019-04-28T09:00:17.999Z,95
2019-04-28T09:01:18.275Z,95
2019-04-28T09:02:17.783Z,100
2019-04-28T09:03:20.598Z,95
2019-04-28T09:04:26.099Z,65
2019-04-28T09:05:19.586Z,25
2019-04-28T09:06:19.637Z,25
2019-04-28T09:07:19.627Z,90
2019-04-28T09:08:19.433Z,90
2019-04-28T09:09:18.533Z,95
2019-04-28T09:10:18.219Z,90
2019-04-28T09:11:20.586Z,90
2019-04-28T09:12:18.739Z,90
2019-04-28T09:13:17.407Z,85
2019-04-28T09:14:17.379Z,90
2019-04-28T09:15:19.510Z,90
2019-04-28T09:16:18.677Z,90
2019-04-28T09:17:20.683Z,90
2019-04-28T09:18:19.009Z,90
2019-04-28T09:19:17.550Z,90
2019-04-28T09:20:17.410Z,90
2019-04-28T09:21:18.723Z,90
2019-04-28T09:22:19.818Z,90
2019-04-28T09:23:17.522Z,90
2019-04-28T09:24:21.923Z,90
2019-04-28T09:25:17.438Z,90
2019-04-28T09:26:20.008Z,90
2019-04-28T09:27:17.614Z,85
2019-04-28T09:28:19.116Z,85
2019-04-28T09:29:20.758Z,90
2019-04-28T09:30:19.808Z,90
2019-04-28T09:31:21.409Z,95
2019-04-28T09:32:21.792Z,90
2019-04-28T09:33:19.026Z,90
2019-04-28T09:34:38.759Z,90
2019-04-28T09:35:17.469Z,90
2019-04-28T09:36:18.478Z,90
2019-04-28T09:37:17.579Z,90
2019-04-28T09:38:20.771Z,90
2019-04-28T09:39:18.556Z,95
2019-04-28T09:40:20.246Z,95
2019-04-28T09:41:18.896Z,100
2019-04-28T09:42:25.891Z,105
2019-04-28T09:43:21.055Z,75
2019-04-28T09:44:19.800Z,95
2019-04-28T09:45:17.565Z,35
2019-04-28T09:46:18.270Z,30
2019-04-28T09:47:29.122Z,30
2019-04-28T09:48:17.472Z,50
2019-04-28T09:49:17.577Z,95
2019-04-28T09:50:17.458Z,95
2019-04-28T09:51:19.639Z,95
2019-04-28T09:52:19.060Z,95
2019-04-28T09:53:19.824Z,95
2019-04-28T09:54:17.472Z,95
2019-04-28T09:55:17.411Z,100
2019-04-28T09:56:19.181Z,100
2019-04-28T09:57:17.435Z,100
2019-04-28T09:58:18.768Z,100
2019-04-28T09:59:28.366Z,100
2019-04-28T10:00:18.227Z,100
2019-04-28T10:01:17.433Z,100
2019-04-28T10:02:21.423Z,100
2019-04-28T10:03:27.851Z,100
2019-04-28T10:04:17.471Z,100
2019-04-28T10:05:17.909Z,100
2019-04-28T10:06:17.516Z,100
2019-04-28T10:07:17.513Z,100
2019-04-28T10:08:17.498Z,100
2019-04-28T10:09:17.608Z,105
2019-04-28T10:10:17.676Z,85
2019-04-28T10:11:29.915Z,40
2019-04-28T10:12:29.428Z,35
2019-04-28T10:13:17.573Z,35
2019-04-28T10:14:17.508Z,35
2019-04-28T10:15:17.483Z,30
2019-04-28T10:16:17.481Z,30
2019-04-28T10:17:23.382Z,30
2019-04-28T10:18:17.547Z,30
2019-04-28T10:19:17.552Z,30
2019-04-28T10:20:17.501Z,30
2019-04-28T10:21:17.556Z,30
2019-04-28T10:22:17.738Z,30
2019-04-28T10:23:17.956Z,30
2019-04-28T10:24:17.631Z,30
2019-04-28T10:25:17.702Z,30
2019-04-28T10:26:17.543Z,30
2019-04-28T10:27:17.649Z,30
2019-04-28T10:28:17.554Z,25
2019-04-28T10:29:17.928Z,25
2019-04-28T10:30:17.563Z,25
2019-04-28T10:31:18.761Z,25
2019-04-28T10:32:17.579Z,25
2019-04-28T10:33:17.713Z,25
2019-04-28T10:34:17.612Z,25
2019-04-28T10:35:17.866Z,25
2019-04-28T10:36:17.603Z,25
2019-04-28T10:37:17.922Z,25
2019-04-28T10:38:17.536Z,20
2019-04-28T10:39:17.593Z,20
2019-04-28T10:40:17.610Z,20
2019-04-28T10:41:17.946Z,20
2019-04-28T10:42:17.605Z,20
2019-04-28T10:43:17.527Z,20
2019-04-28T10:44:18.985Z,20
2019-04-28T10:45:17.543Z,20
2019-04-28T10:46:17.570Z,20
2019-04-28T10:47:29.114Z,20
2019-04-28T10:48:17.699Z,20
2019-04-28T10:49:17.498Z,20
2019-04-28T10:50:17.532Z,20
2019-04-28T10:51:17.580Z,20
2019-04-28T10:52:17.590Z,20
2019-04-28T10:53:17.917Z,20
2019-04-28T10:54:17.617Z,20
2019-04-28T10:55:17.605Z,20
2019-04-28T10:56:17.568Z,20
2019-04-28T10:57:17.558Z,20
2019-04-28T10:58:17.585Z,20
2019-04-28T10:59:20.785Z,20
2019-04-28T11:00:17.552Z,20
2019-04-28T11:01:17.525Z,20
2019-04-28T11:02:17.655Z,20
2019-04-28T11:03:17.592Z,20
2019-04-28T11:04:17.560Z,20
2019-04-28T11:05:19.616Z,20
2019-04-28T11:06:20.488Z,20
2019-04-28T11:07:17.680Z,20
2019-04-28T11:08:17.573Z,20
2019-04-28T11:09:29.740Z,20
2019-04-28T11:10:17.661Z,20
2019-04-28T11:11:18.041Z,20
2019-04-28T11:12:17.631Z,20
2019-04-28T11:13:17.556Z,20
2019-04-28T11:14:19.514Z,25
2019-04-28T11:15:17.596Z,25
2019-04-28T11:16:17.636Z,25
2019-04-28T11:17:29.052Z,25
2019-04-28T11:18:17.820Z,25
2019-04-28T11:19:17.585Z,25
2019-04-28T11:20:17.610Z,30
2019-04-28T11:21:17.683Z,30
2019-04-28T11:22:17.649Z,30
2019-04-28T11:23:17.956Z,30
2019-04-28T11:24:17.754Z,30
2019-04-28T11:25:17.639Z,30
2019-04-28T11:26:17.628Z,30
2019-04-28T11:27:17.720Z,30
2019-04-28T11:28:17.741Z,30
2019-04-28T11:29:28.788Z,30
2019-04-28T11:30:17.679Z,30
2019-04-28T11:31:17.664Z,30
2019-04-28T11:32:17.694Z,30
2019-04-28T11:33:17.655Z,30
2019-04-28T11:34:17.643Z,35
2019-04-28T11:35:29.611Z,35
2019-04-28T11:36:17.720Z,35
2019-04-28T11:37:17.643Z,35
2019-04-28T11:38:17.710Z,35
2019-04-28T11:39:17.677Z,30
2019-04-28T11:40:17.725Z,30
2019-04-28T11:41:19.821Z,30
2019-04-28T11:42:17.678Z,30
2019-04-28T11:43:17.719Z,30
2019-04-28T11:44:17.737Z,30
2019-04-28T11:45:17.677Z,30
2019-04-28T11:46:17.707Z,30
2019-04-28T11:47:30.287Z,30
2019-04-28T11:48:17.863Z,30
2019-04-28T11:49:17.827Z,30
2019-04-28T11:50:17.793Z,30
2019-04-28T11:51:17.855Z,30
2019-04-28T11:52:17.893Z,35
2019-04-28T11:53:18.122Z,35
2019-04-28T11:54:17.836Z,35
2019-04-28T11:55:17.702Z,35
2019-04-28T11:56:17.791Z,35
2019-04-28T11:57:17.721Z,35
2019-04-28T11:58:17.802Z,35
2019-04-28T11:59:18.136Z,35
2019-04-28T12:00:17.755Z,35
2019-04-28T12:01:17.765Z,30
2019-04-28T12:02:17.646Z,35
2019-04-28T12:03:17.708Z,35
2019-04-28T12:04:17.678Z,35
2019-04-28T12:05:17.733Z,35
2019-04-28T12:06:17.755Z,35
2019-04-28T12:07:17.702Z,35
2019-04-28T12:08:17.790Z,35
2019-04-28T12:09:17.769Z,35
2019-04-28T12:10:17.780Z,35
2019-04-28T12:11:18.018Z,35
2019-04-28T12:12:19.182Z,35
2019-04-28T12:13:17.720Z,35
2019-04-28T12:14:17.705Z,40
2019-04-28T12:15:17.753Z,50
2019-04-28T12:16:17.788Z,85
2019-04-28T12:17:31.105Z,55
2019-04-28T12:18:17.949Z,75
2019-04-28T12:19:17.810Z,65
2019-04-28T12:20:17.898Z,45
2019-04-28T12:21:17.965Z,45
2019-04-28T12:22:17.873Z,45
2019-04-28T12:23:20.311Z,45
2019-04-28T12:24:17.797Z,65
2019-04-28T12:25:17.805Z,50
2019-04-28T12:26:17.793Z,45
2019-04-28T12:27:17.758Z,45
2019-04-28T12:28:17.724Z,40
2019-04-28T12:29:19.083Z,35
2019-04-28T12:30:17.841Z,35
2019-04-28T12:31:17.890Z,35
2019-04-28T12:32:17.768Z,35
2019-04-28T12:33:17.721Z,35
2019-04-28T12:34:17.809Z,30
2019-04-28T12:35:18.505Z,30
2019-04-28T12:36:17.717Z,35
2019-04-28T12:37:17.739Z,35
2019-04-28T12:38:17.770Z,35
2019-04-28T12:39:17.820Z,35
2019-04-28T12:40:17.806Z,40
2019-04-28T12:41:18.164Z,40
2019-04-28T12:42:17.846Z,40
2019-04-28T12:43:17.706Z,25
2019-04-28T12:44:17.892Z,25
2019-04-28T12:45:18.039Z,25
2019-04-28T12:46:17.995Z,25
2019-04-28T12:47:18.406Z,25
2019-04-28T12:48:18.108Z,25
2019-04-28T12:49:17.953Z,25
2019-04-28T12:50:17.728Z,25
2019-04-28T12:51:17.886Z,25
2019-04-28T12:52:18.198Z,30
2019-04-28T12:53:17.801Z,30
2019-04-28T12:54:17.809Z,35
2019-04-28T12:55:17.749Z,40
2019-04-28T12:56:17.796Z,70
2019-04-28T12:57:17.766Z,65
2019-04-28T12:58:18.365Z,75
2019-04-28T12:59:17.815Z,75
2019-04-28T13:00:18.046Z,75
2019-04-28T13:01:17.790Z,75
2019-04-28T13:02:17.875Z,80
2019-04-28T13:03:17.887Z,80
2019-04-28T13:04:18.226Z,85
2019-04-28T13:05:17.919Z,85
2019-04-28T13:06:17.823Z,75
2019-04-28T13:07:17.854Z,55
2019-04-28T13:08:17.985Z,80
2019-04-28T13:09:17.905Z,80
2019-04-28T13:10:18.258Z,80
2019-04-28T13:11:18.007Z,60
2019-04-28T13:12:19.504Z,50
2019-04-28T13:13:17.896Z,40
2019-04-28T13:14:17.919Z,40
2019-04-28T13:15:17.893Z,30
2019-04-28T13:16:18.201Z,35
2019-04-28T13:17:17.894Z,45
2019-04-28T13:18:18.367Z,65
2019-04-28T13:19:17.841Z,80
2019-04-28T13:20:17.841Z,70
2019-04-28T13:21:17.909Z,65
2019-04-28T13:22:18.191Z,65
2019-04-28T13:23:17.946Z,70
2019-04-28T13:24:17.850Z,75
2019-04-28T13:25:17.901Z,80
2019-04-28T13:26:17.989Z,80
2019-04-28T13:27:21.064Z,75
2019-04-28T13:28:17.937Z,80
2019-04-28T13:29:17.859Z,75
2019-04-28T13:30:17.877Z,30
2019-04-28T13:31:17.965Z,30
2019-04-28T13:32:17.997Z,30
2019-04-28T13:33:18.205Z,40
2019-04-28T13:34:17.954Z,65
2019-04-28T13:35:17.918Z,75
2019-04-28T13:36:25.135Z,70
2019-04-28T13:37:17.910Z,70
2019-04-28T13:38:17.900Z,70
2019-04-28T13:39:18.632Z,65
2019-04-28T13:40:18.086Z,70
2019-04-28T13:41:17.988Z,70
2019-04-28T13:42:17.990Z,70
2019-04-28T13:43:17.993Z,70
2019-04-28T13:44:17.987Z,70
2019-04-28T13:45:18.490Z,70
2019-04-28T13:46:17.933Z,70
2019-04-28T13:47:17.943Z,15
2019-04-28T13:48:19.214Z,20
2019-04-28T13:49:18.154Z,25
2019-04-28T13:50:17.979Z,70
2019-04-28T13:51:18.557Z,70
2019-04-28T13:52:17.888Z,70
2019-04-28T13:53:17.960Z,65
2019-04-28T13:54:17.862Z,70
2019-04-28T13:55:17.908Z,70
2019-04-28T13:56:17.934Z,70
2019-04-28T13:57:18.422Z,65
2019-04-28T13:58:17.908Z,65
2019-04-28T13:59:18.991Z,35
2019-04-28T14:00:18.072Z,70
2019-04-28T14:01:18.135Z,15
2019-04-28T14:02:18.139Z,15
2019-04-28T14:03:19.386Z,15
2019-04-28T14:04:18.196Z,15
2019-04-28T14:05:18.187Z,15
2019-04-28T14:06:30.373Z,15
2019-04-28T14:07:18.256Z,15
2019-04-28T14:08:17.938Z,15
2019-04-28T14:09:18.312Z,15
2019-04-28T14:10:18.152Z,15
2019-04-28T14:11:18.761Z,15
2019-04-28T14:12:17.970Z,15
2019-04-28T14:13:17.986Z,15
2019-04-28T14:14:17.977Z,15
2019-04-28T14:15:18.498Z,15
2019-04-28T14:16:18.069Z,15
2019-04-28T14:17:18.002Z,20
2019-04-28T14:18:18.082Z,20
2019-04-28T14:19:17.917Z,20
2019-04-28T14:20:18.124Z,20
2019-04-28T14:21:18.836Z,20
2019-04-28T14:22:17.905Z,20
2019-04-28T14:23:18.125Z,20
2019-04-28T14:24:18.024Z,30
2019-04-28T14:25:18.027Z,35
2019-04-28T14:26:18.038Z,35
2019-04-28T14:27:17.986Z,30
2019-04-28T14:28:18.123Z,25
2019-04-28T14:29:17.993Z,25